createdAt,value
2023-03-13T00:01:27.696Z,97870.95
2023-03-13T00:03:55.605Z,97871.48
2023-03-13T00:06:26.936Z,97863.74
2023-03-13T00:08:55.446Z,97864.80
2023-03-13T00:11:23.168Z,97872.27
2023-03-13T00:14:01.726Z,97873.61
2023-03-13T00:16:30.736Z,97871.20
2023-03-13T00:18:59.401Z,97875.17
2023-03-13T00:21:29.329Z,97876.77
2023-03-13T00:23:59.485Z,97874.63
2023-03-13T00:26:28.461Z,97876.45
2023-03-13T00:28:56.243Z,97876.68
2023-03-13T00:31:28.045Z,97871.08
2023-03-13T00:34:00.950Z,97876.95
2023-03-13T00:36:34.427Z,97879.08
2023-03-13T00:39:05.859Z,97874.81
2023-03-13T00:41:37.855Z,97869.97
2023-03-13T00:44:06.506Z,97875.80
2023-03-13T00:46:34.080Z,97876.59
2023-03-13T00:49:01.974Z,97875.48
2023-03-13T00:51:30.277Z,97885.08
2023-03-13T00:54:00.467Z,97882.14
2023-03-13T00:56:28.842Z,97882.14
2023-03-13T00:58:56.646Z,97880.81
2023-03-13T01:01:28.398Z,97880.50
2023-03-13T01:04:03.699Z,97882.14
2023-03-13T01:06:34.666Z,97886.62
2023-03-13T01:09:04.629Z,97885.78
2023-03-13T01:11:36.509Z,97890.31
2023-03-13T01:14:08.668Z,97889.47
2023-03-13T01:16:38.152Z,97890.57
2023-03-13T01:19:12.602Z,97885.24
2023-03-13T01:21:43.853Z,97890.80
2023-03-13T01:24:12.188Z,97887.87
2023-03-13T01:26:40.007Z,97883.33
2023-03-13T01:29:07.801Z,97886.22
2023-03-13T01:31:36.339Z,97887.81
2023-03-13T01:34:06.684Z,97882.45
2023-03-13T01:36:37.368Z,97888.27
2023-03-13T01:39:06.391Z,97894.66
2023-03-13T01:41:34.703Z,97896.47
2023-03-13T01:44:03.320Z,97904.77
2023-03-13T01:46:33.001Z,97899.98
2023-03-13T01:49:22.439Z,97900.55
2023-03-13T01:52:10.133Z,97898.69
2023-03-13T01:54:45.547Z,97899.70
2023-03-13T01:57:28.714Z,97905.25
2023-03-13T02:00:09.500Z,97908.40
2023-03-13T02:02:47.409Z,97907.05
2023-03-13T02:05:17.450Z,97908.67
2023-03-13T02:08:30.498Z,97907.91
2023-03-13T02:11:19.811Z,97915.63
2023-03-13T02:13:51.306Z,97929.71
2023-03-13T02:16:20.316Z,97929.71
2023-03-13T02:18:49.181Z,97928.86
2023-03-13T02:21:31.521Z,97942.16
2023-03-13T02:24:04.642Z,97942.13
2023-03-13T02:26:33.217Z,97944.23
2023-03-13T02:29:01.051Z,97960.44
2023-03-13T02:31:30.257Z,97956.70
2023-03-13T02:34:00.960Z,97958.56
2023-03-13T02:36:31.122Z,97954.80
2023-03-13T02:39:08.773Z,97959.09
2023-03-13T02:41:37.460Z,97952.97
2023-03-13T02:44:06.492Z,97952.13
2023-03-13T02:46:48.326Z,97952.66
2023-03-13T02:49:24.474Z,97941.21
2023-03-13T02:51:56.469Z,97945.48
2023-03-13T02:54:36.495Z,97944.45
2023-03-13T02:57:07.353Z,97943.59
2023-03-13T02:59:35.193Z,97950.53
2023-03-13T03:02:04.454Z,97954.05
2023-03-13T03:04:32.912Z,97955.70
2023-03-13T03:07:01.135Z,97955.02
2023-03-13T03:09:30.214Z,97955.38
2023-03-13T03:12:00.265Z,97940.42
2023-03-13T03:14:29.885Z,97943.39
2023-03-13T03:16:58.514Z,97944.42
2023-03-13T03:19:29.474Z,97947.88
2023-03-13T03:21:57.765Z,97951.59
2023-03-13T03:24:26.140Z,97951.80
2023-03-13T03:26:53.740Z,97959.49
2023-03-13T03:29:23.375Z,97965.39
2023-03-13T03:31:52.507Z,97969.45
2023-03-13T03:34:20.843Z,97962.52
2023-03-13T03:36:48.972Z,97967.05
2023-03-13T03:39:16.689Z,97966.77
2023-03-13T03:41:45.080Z,97975.47
2023-03-13T03:44:12.810Z,97979.20
2023-03-13T03:46:51.468Z,97982.34
2023-03-13T03:49:19.836Z,97966.14
2023-03-13T03:51:48.977Z,97977.32
2023-03-13T03:54:17.388Z,97966.62
2023-03-13T03:56:45.185Z,97953.56
2023-03-13T03:59:13.015Z,97965.23
2023-03-13T04:01:48.363Z,97967.36
2023-03-13T04:04:17.914Z,97962.52
2023-03-13T04:06:47.340Z,97972.31
2023-03-13T04:09:14.959Z,97970.44
2023-03-13T04:11:42.930Z,97972.52
2023-03-13T04:14:11.564Z,97975.19
2023-03-13T04:16:39.556Z,97977.57
2023-03-13T04:19:07.424Z,97988.00
2023-03-13T04:21:36.148Z,97994.95
2023-03-13T04:24:07.032Z,97998.19
2023-03-13T04:26:36.335Z,97993.66
2023-03-13T04:29:05.759Z,97995.27
2023-03-13T04:31:51.761Z,97997.70
2023-03-13T04:34:21.345Z,98001.17
2023-03-13T04:36:54.709Z,98006.72
2023-03-13T04:39:39.031Z,98009.39
2023-03-13T04:42:25.525Z,98017.63
2023-03-13T04:45:12.504Z,98014.51
2023-03-13T04:47:46.603Z,98013.17
2023-03-13T04:50:32.335Z,98023.88
2023-03-13T04:53:08.989Z,98028.13
2023-03-13T04:55:45.196Z,98030.01
2023-03-13T04:58:17.502Z,98026.87
2023-03-13T05:00:46.857Z,98031.41
2023-03-13T05:03:25.278Z,98026.92
2023-03-13T05:06:13.216Z,98027.52
2023-03-13T05:08:40.986Z,98023.53
2023-03-13T05:11:27.023Z,98011.33
2023-03-13T05:14:13.055Z,98009.78
2023-03-13T05:16:48.742Z,98010.91
2023-03-13T05:19:34.977Z,98020.02
2023-03-13T05:22:21.649Z,98023.28
2023-03-13T05:25:09.068Z,98020.72
2023-03-13T05:27:45.765Z,98017.31
2023-03-13T05:30:32.207Z,98018.98
2023-03-13T05:33:04.712Z,98025.20
2023-03-13T05:35:40.417Z,98036.46
2023-03-13T05:38:13.876Z,98042.70
2023-03-13T05:41:01.693Z,98041.77
2023-03-13T05:43:46.497Z,98033.83
2023-03-13T05:46:28.237Z,98026.14
2023-03-13T05:49:03.749Z,98037.61
2023-03-13T05:51:51.384Z,98042.23
2023-03-13T05:54:30.111Z,98043.63
2023-03-13T05:56:59.659Z,98045.08
2023-03-13T05:59:44.399Z,98046.50
2023-03-13T06:02:23.044Z,98042.28
2023-03-13T06:04:51.752Z,98053.80
2023-03-13T06:07:19.461Z,98051.97
2023-03-13T06:09:48.727Z,98049.92
2023-03-13T06:12:16.439Z,98050.22
2023-03-13T06:14:44.396Z,98047.33
2023-03-13T06:17:22.553Z,98036.19
2023-03-13T06:19:50.643Z,98032.75
2023-03-13T06:22:18.684Z,98035.19
2023-03-13T06:24:48.191Z,98024.58
2023-03-13T06:27:16.579Z,98016.89
2023-03-13T06:29:44.373Z,98016.66
2023-03-13T06:32:12.371Z,98023.97
2023-03-13T06:34:39.899Z,98021.59
2023-03-13T06:37:07.473Z,98021.88
2023-03-13T06:39:35.506Z,98020.34
2023-03-13T06:42:03.519Z,98023.55
2023-03-13T06:44:31.331Z,98021.16
2023-03-13T06:46:58.944Z,98023.06
2023-03-13T06:49:26.961Z,98029.23
2023-03-13T06:51:59.845Z,98036.72
2023-03-13T06:54:27.707Z,98030.57
2023-03-13T06:56:55.646Z,98041.53
2023-03-13T06:59:23.467Z,98040.75
2023-03-13T07:01:51.183Z,98037.30
2023-03-13T07:07:01.209Z,98027.15
2023-03-13T07:09:29.233Z,98043.98
2023-03-13T07:11:58.265Z,98042.94
2023-03-13T07:14:26.062Z,98052.30
2023-03-13T07:16:53.650Z,98049.39
2023-03-13T07:19:21.461Z,98049.89
2023-03-13T07:21:49.900Z,98050.16
2023-03-13T07:24:17.729Z,98051.77
2023-03-13T07:27:01.861Z,98056.31
2023-03-13T07:29:15.432Z,98048.80
2023-03-13T07:31:43.196Z,98046.17
2023-03-13T07:34:10.897Z,98043.81
2023-03-13T07:36:40.623Z,98051.63
2023-03-13T07:39:08.681Z,98043.97
2023-03-13T07:41:37.787Z,98053.95
2023-03-13T07:44:07.115Z,98042.79
2023-03-13T07:46:34.834Z,98038.00
2023-03-13T07:49:02.711Z,98047.92
2023-03-13T07:51:42.983Z,98045.27
2023-03-13T07:54:00.298Z,98045.00
2023-03-13T07:56:28.167Z,98041.79
2023-03-13T07:58:55.782Z,98042.59
2023-03-13T08:01:30.549Z,98037.76
2023-03-13T08:03:58.068Z,98032.11
2023-03-13T08:06:27.674Z,98032.09
2023-03-13T08:08:57.950Z,98033.13
2023-03-13T08:11:27.926Z,98039.26
2023-03-13T08:13:57.238Z,98029.56
2023-03-13T08:16:28.862Z,98026.84
2023-03-13T08:18:58.169Z,98034.62
2023-03-13T08:21:30.115Z,98021.39
2023-03-13T08:24:01.057Z,98025.06
2023-03-13T08:26:30.523Z,98029.77
2023-03-13T08:29:03.391Z,98026.70
2023-03-13T08:31:35.525Z,98016.43
2023-03-13T08:34:03.323Z,98021.14
2023-03-13T08:36:37.916Z,98019.02
2023-03-13T08:39:15.867Z,98029.02
2023-03-13T08:41:44.123Z,98026.59
2023-03-13T08:44:14.764Z,98016.05
2023-03-13T08:46:43.627Z,98023.59
2023-03-13T08:49:12.807Z,98018.17
2023-03-13T08:51:40.743Z,98022.14
2023-03-13T08:54:09.331Z,98030.03
2023-03-13T08:56:37.014Z,98025.78
2023-03-13T08:59:05.917Z,98021.79
2023-03-13T09:01:36.387Z,98025.08
2023-03-13T09:04:05.342Z,98026.04
2023-03-13T09:06:38.711Z,98022.67
2023-03-13T09:09:08.035Z,98018.22
2023-03-13T09:11:38.867Z,98017.64
2023-03-13T09:14:08.028Z,98011.14
2023-03-13T09:16:36.549Z,98010.81
2023-03-13T09:19:04.360Z,98024.72
2023-03-13T09:21:34.791Z,98026.08
2023-03-13T09:24:02.620Z,98015.77
2023-03-13T09:26:31.222Z,98016.14
2023-03-13T09:28:59.445Z,98013.81
2023-03-13T09:31:30.987Z,98017.64
2023-03-13T09:34:00.110Z,98009.58
2023-03-13T09:36:28.681Z,98009.77
2023-03-13T09:38:59.255Z,98008.31
2023-03-13T09:41:38.173Z,98007.45
2023-03-13T09:44:20.274Z,98000.02
2023-03-13T09:47:05.449Z,98003.27
2023-03-13T09:50:01.358Z,98001.47
2023-03-13T09:52:39.334Z,97994.04
2023-03-13T09:55:20.036Z,97987.02
2023-03-13T09:57:55.352Z,97984.52
2023-03-13T10:00:43.215Z,97972.06
2023-03-13T10:03:16.532Z,97966.44
2023-03-13T10:05:51.876Z,97962.91
2023-03-13T10:08:22.979Z,97967.95
2023-03-13T10:11:21.885Z,97975.61
2023-03-13T10:14:16.411Z,97969.80
2023-03-13T10:17:07.349Z,97951.55
2023-03-13T10:19:38.968Z,97948.62
2023-03-13T10:22:19.876Z,97941.91
2023-03-13T10:24:58.173Z,97941.87
2023-03-13T10:27:26.392Z,97931.61
2023-03-13T10:29:54.053Z,97922.19
2023-03-13T10:32:21.729Z,97915.66
2023-03-13T10:35:02.643Z,97915.30
2023-03-13T10:37:35.695Z,97912.11
2023-03-13T10:40:25.174Z,97901.05
2023-03-13T10:43:06.764Z,97907.02
2023-03-13T10:45:37.136Z,97901.16
2023-03-13T10:48:24.598Z,97898.27
2023-03-13T10:50:57.124Z,97897.42
2023-03-13T10:53:32.935Z,97888.85
2023-03-13T10:56:18.224Z,97887.36
2023-03-13T10:58:49.781Z,97883.57
2023-03-13T11:01:28.711Z,97878.63
2023-03-13T11:03:59.851Z,97874.11
2023-03-13T11:06:35.820Z,97877.42
2023-03-13T11:09:13.841Z,97875.73
2023-03-13T11:11:49.039Z,97872.83
2023-03-13T11:14:26.167Z,97860.50
2023-03-13T11:17:04.796Z,97863.98
2023-03-13T11:19:53.591Z,97862.98
2023-03-13T11:22:41.647Z,97845.59
2023-03-13T11:25:24.371Z,97853.25
2023-03-13T11:28:06.427Z,97849.77
2023-03-13T11:31:02.323Z,97841.17
2023-03-13T11:34:17.182Z,97840.55
2023-03-13T11:37:10.164Z,97839.67
2023-03-13T11:39:55.630Z,97838.03
2023-03-13T11:42:58.332Z,97833.18
2023-03-13T11:45:48.526Z,97842.34
2023-03-13T11:48:37.073Z,97842.57
2023-03-13T11:51:22.566Z,97836.36
2023-03-13T11:54:24.842Z,97838.50
2023-03-13T11:56:59.493Z,97840.97
2023-03-13T11:59:47.373Z,97837.08
2023-03-13T12:02:26.327Z,97834.53
2023-03-13T12:05:06.819Z,97828.23
2023-03-13T12:08:01.142Z,97819.30
2023-03-13T12:10:37.225Z,97814.61
2023-03-13T12:13:21.148Z,97813.66
2023-03-13T12:15:53.878Z,97812.23
2023-03-13T12:21:53.900Z,97804.47
2023-03-13T12:24:49.427Z,97802.33
2023-03-13T12:27:29.281Z,97800.44
2023-03-13T12:30:20.356Z,97806.87
2023-03-13T12:33:25.962Z,97799.94
2023-03-13T12:36:19.392Z,97791.64
2023-03-13T12:39:00.453Z,97792.20
2023-03-13T12:41:40.060Z,97791.89
2023-03-13T12:44:15.390Z,97793.80
2023-03-13T12:46:47.571Z,97785.81
2023-03-13T12:49:45.899Z,97783.27
2023-03-13T12:52:22.004Z,97778.38
2023-03-13T12:54:55.243Z,97775.31
2023-03-13T12:57:56.880Z,97775.13
2023-03-13T13:00:28.780Z,97770.64
2023-03-13T13:03:18.708Z,97769.85
2023-03-13T13:06:09.296Z,97775.39
2023-03-13T13:08:50.142Z,97770.77
2023-03-13T13:11:46.606Z,97766.89
2023-03-13T13:14:22.688Z,97760.78
2023-03-13T13:17:04.829Z,97760.14
2023-03-13T13:19:45.786Z,97754.64
2023-03-13T13:22:40.190Z,97754.64
2023-03-13T13:25:37.788Z,97748.00
2023-03-13T13:28:26.981Z,97737.52
2023-03-13T13:30:57.003Z,97738.72
2023-03-13T13:33:33.011Z,97732.97
2023-03-13T13:36:24.524Z,97732.84
2023-03-13T13:38:53.028Z,97727.83
2023-03-13T13:41:25.830Z,97739.19
2023-03-13T13:44:23.757Z,97731.77
2023-03-13T13:46:54.146Z,97731.35
2023-03-13T13:49:34.761Z,97724.92
2023-03-13T13:52:08.138Z,97724.63
2023-03-13T13:54:48.057Z,97722.55
2023-03-13T13:57:22.945Z,97716.41
2023-03-13T14:00:06.419Z,97717.12
2023-03-13T14:02:38.451Z,97711.16
2023-03-13T14:05:27.061Z,97697.99
2023-03-13T14:08:15.132Z,97702.48
2023-03-13T14:11:16.784Z,97696.64
2023-03-13T14:13:44.453Z,97697.02
2023-03-13T14:16:27.101Z,97691.93
2023-03-13T14:18:55.585Z,97688.64
2023-03-13T14:21:26.646Z,97686.39
2023-03-13T14:23:54.575Z,97687.75
2023-03-13T14:26:28.764Z,97682.76
2023-03-13T14:29:07.720Z,97682.53
2023-03-13T14:31:37.974Z,97682.09
2023-03-13T14:34:09.832Z,97682.34
2023-03-13T14:36:50.740Z,97685.65
2023-03-13T14:39:45.358Z,97678.05
2023-03-13T14:42:16.186Z,97671.59
2023-03-13T14:44:48.141Z,97667.17
2023-03-13T14:47:30.246Z,97659.00
2023-03-13T14:50:01.778Z,97652.55
2023-03-13T14:52:32.205Z,97654.00
2023-03-13T14:55:08.493Z,97652.77
2023-03-13T14:57:36.111Z,97654.92
2023-03-13T15:00:33.822Z,97650.62
2023-03-13T15:03:21.503Z,97653.09
2023-03-13T15:06:11.465Z,97656.61
2023-03-13T15:08:52.107Z,97652.41
2023-03-13T15:11:30.254Z,97651.97
2023-03-13T15:13:58.471Z,97655.14
2023-03-13T15:16:27.795Z,97655.36
2023-03-13T15:18:56.615Z,97641.64
2023-03-13T15:21:34.622Z,97638.36
2023-03-13T15:24:13.320Z,97632.80
2023-03-13T15:26:41.437Z,97626.09
2023-03-13T15:29:11.070Z,97621.40
2023-03-13T15:31:39.522Z,97613.78
2023-03-13T15:34:12.394Z,97620.77
2023-03-13T15:36:42.788Z,97622.78
2023-03-13T15:39:16.077Z,97616.39
2023-03-13T15:41:43.766Z,97622.92
2023-03-13T15:44:11.608Z,97619.05
2023-03-13T15:46:39.485Z,97614.91
2023-03-13T15:49:12.364Z,97614.55
2023-03-13T15:51:40.067Z,97619.59
2023-03-13T15:54:08.813Z,97625.58
2023-03-13T15:56:38.088Z,97622.81
2023-03-13T15:59:13.101Z,97628.08
2023-03-13T16:01:42.372Z,97631.27
2023-03-13T16:04:11.378Z,97640.31
2023-03-13T16:06:39.073Z,97633.63
2023-03-13T16:09:07.160Z,97635.72
2023-03-13T16:11:36.345Z,97633.30
2023-03-13T16:14:05.764Z,97642.33
2023-03-13T16:16:37.726Z,97641.91
2023-03-13T16:19:07.055Z,97645.73
2023-03-13T16:21:35.707Z,97649.99
2023-03-13T16:24:04.248Z,97650.57
2023-03-13T16:26:32.360Z,97650.81
2023-03-13T16:29:00.045Z,97649.20
2023-03-13T16:31:31.283Z,97648.35
2023-03-13T16:34:00.351Z,97648.09
2023-03-13T16:36:31.086Z,97649.55
2023-03-13T16:39:02.626Z,97651.16
2023-03-13T16:41:30.642Z,97653.69
2023-03-13T16:43:58.818Z,97646.52
2023-03-13T16:46:37.653Z,97644.97
2023-03-13T16:49:07.255Z,97643.20
2023-03-13T16:51:34.859Z,97645.99
2023-03-13T16:54:04.558Z,97641.73
2023-03-13T16:56:39.907Z,97640.73
2023-03-13T16:59:14.955Z,97640.05
2023-03-13T17:01:42.403Z,97638.47
2023-03-13T17:04:11.878Z,97638.24
2023-03-13T17:06:41.905Z,97640.07
2023-03-13T17:09:13.862Z,97637.69
2023-03-13T17:11:42.337Z,97642.55
2023-03-13T17:14:10.278Z,97650.12
2023-03-13T17:16:44.202Z,97650.11
2023-03-13T17:19:13.890Z,97651.44
2023-03-13T17:21:41.889Z,97653.50
2023-03-13T17:24:11.098Z,97660.84
2023-03-13T17:26:40.354Z,97653.91
2023-03-13T17:29:12.007Z,97649.94
2023-03-13T17:31:40.481Z,97650.53
2023-03-13T17:34:08.825Z,97645.85
2023-03-13T17:36:36.793Z,97650.09
2023-03-13T17:39:08.328Z,97642.72
2023-03-13T17:41:36.597Z,97638.34
2023-03-13T17:44:05.375Z,97643.09
2023-03-13T17:46:47.403Z,97637.61
2023-03-13T17:49:17.648Z,97649.05
2023-03-13T17:51:45.780Z,97644.87
2023-03-13T17:54:15.617Z,97649.36
2023-03-13T17:56:45.310Z,97649.77
2023-03-13T17:59:17.730Z,97642.62
2023-03-13T18:01:46.058Z,97644.09
2023-03-13T18:04:14.182Z,97645.55
2023-03-13T18:06:49.211Z,97641.57
2023-03-13T18:09:21.695Z,97648.40
2023-03-13T18:11:50.101Z,97647.97
2023-03-13T18:14:17.946Z,97649.41
2023-03-13T18:16:49.813Z,97652.16
2023-03-13T18:19:23.568Z,97641.22
2023-03-13T18:21:54.900Z,97647.48
2023-03-13T18:24:23.291Z,97645.43
2023-03-13T18:26:51.310Z,97647.38
2023-03-13T18:29:28.550Z,97642.34
2023-03-13T18:31:59.872Z,97639.19
2023-03-13T18:34:28.960Z,97641.44
2023-03-13T18:36:59.135Z,97655.22
2023-03-13T18:39:26.727Z,97653.16
2023-03-13T18:41:54.288Z,97658.28
2023-03-13T18:44:22.526Z,97652.14
2023-03-13T18:46:52.078Z,97651.61
2023-03-13T18:49:21.846Z,97648.73
2023-03-13T18:51:52.990Z,97649.25
2023-03-13T18:54:20.670Z,97645.03
2023-03-13T18:56:49.754Z,97649.66
2023-03-13T18:59:22.074Z,97644.11
2023-03-13T19:01:50.492Z,97643.91
2023-03-13T19:04:20.444Z,97635.89
2023-03-13T19:06:48.304Z,97641.57
2023-03-13T19:09:42.836Z,97647.53
2023-03-13T19:11:50.476Z,97648.11
2023-03-13T19:14:17.800Z,97650.86
2023-03-13T19:16:52.476Z,97652.28
2023-03-13T19:19:22.619Z,97654.48
2023-03-13T19:21:52.626Z,97655.60
2023-03-13T19:24:22.180Z,97655.13
2023-03-13T19:26:53.907Z,97655.98
2023-03-13T19:29:23.627Z,97657.36
2023-03-13T19:31:51.546Z,97660.64
2023-03-13T19:34:19.374Z,97656.93
2023-03-13T19:36:49.307Z,97654.81
2023-03-13T19:39:20.772Z,97659.15
2023-03-13T19:41:48.788Z,97659.94
2023-03-13T19:44:18.301Z,97655.41
2023-03-13T19:46:46.869Z,97662.64
2023-03-13T19:49:17.926Z,97659.71
2023-03-13T19:51:46.339Z,97650.56
2023-03-13T19:54:14.860Z,97649.27
2023-03-13T19:56:48.189Z,97649.53
2023-03-13T19:59:26.276Z,97652.28
2023-03-13T20:01:59.152Z,97646.97
2023-03-13T20:04:27.593Z,97646.97
2023-03-13T20:06:55.026Z,97642.15
2023-03-13T20:09:22.717Z,97643.97
2023-03-13T20:11:50.740Z,97645.56
2023-03-13T20:14:18.449Z,97639.11
2023-03-13T20:16:48.076Z,97639.42
2023-03-13T20:22:03.766Z,97638.14
2023-03-13T20:24:35.859Z,97638.45
2023-03-13T20:27:03.875Z,97635.57
2023-03-13T20:29:32.655Z,97630.78
2023-03-13T20:32:01.286Z,97627.91
2023-03-13T20:34:29.167Z,97626.38
2023-03-13T20:36:59.074Z,97632.00
2023-03-13T20:39:28.310Z,97631.27
2023-03-13T20:41:57.006Z,97630.72
2023-03-13T20:44:24.571Z,97625.10
2023-03-13T20:46:52.537Z,97634.74
2023-03-13T20:49:20.476Z,97631.56
2023-03-13T20:51:48.124Z,97628.89
2023-03-13T20:54:15.946Z,97630.03
2023-03-13T20:56:43.812Z,97629.78
2023-03-13T20:59:11.469Z,97624.69
2023-03-13T21:01:39.065Z,97628.45
2023-03-13T21:04:06.554Z,97629.56
2023-03-13T21:06:33.939Z,97625.59
2023-03-13T21:09:01.516Z,97620.53
2023-03-13T21:11:29.480Z,97620.81
2023-03-13T21:13:57.052Z,97612.23
2023-03-13T21:16:24.870Z,97617.84
2023-03-13T21:18:52.557Z,97608.46
2023-03-13T21:21:21.899Z,97611.14
2023-03-13T21:23:52.990Z,97615.41
2023-03-13T21:26:21.052Z,97613.27
2023-03-13T21:28:48.966Z,97607.07
2023-03-13T21:31:18.837Z,97603.88
2023-03-13T21:33:48.751Z,97607.37
2023-03-13T21:36:22.629Z,97601.25
2023-03-13T21:38:50.518Z,97598.29
2023-03-13T21:41:21.465Z,97603.95
2023-03-13T21:43:49.141Z,97603.45
2023-03-13T21:46:19.499Z,97595.70
2023-03-13T21:48:47.539Z,97594.12
2023-03-13T21:51:15.956Z,97591.98
2023-03-13T21:53:43.898Z,97595.52
2023-03-13T21:56:16.108Z,97592.05
2023-03-13T21:58:44.990Z,97589.37
2023-03-13T22:01:14.738Z,97586.18
2023-03-13T22:03:44.702Z,97588.86
2023-03-13T22:06:18.669Z,97589.95
2023-03-13T22:08:49.561Z,97589.70
2023-03-13T22:11:18.145Z,97593.22
2023-03-13T22:13:47.679Z,97584.14
2023-03-13T22:16:15.337Z,97586.32
2023-03-13T22:18:43.551Z,97580.42
2023-03-13T22:21:14.592Z,97585.27
2023-03-13T22:23:44.473Z,97580.47
2023-03-13T22:26:15.392Z,97577.28
2023-03-13T22:28:43.984Z,97571.64
2023-03-13T22:31:13.401Z,97566.28
2023-03-13T22:33:48.644Z,97567.11
2023-03-13T22:36:18.611Z,97560.66
2023-03-13T22:38:46.315Z,97559.33
2023-03-13T22:41:16.775Z,97547.27
2023-03-13T22:43:47.720Z,97540.33
2023-03-13T22:46:18.281Z,97544.09
2023-03-13T22:48:47.096Z,97533.09
2023-03-13T22:51:15.589Z,97540.88
2023-03-13T22:53:43.378Z,97539.53
2023-03-13T22:56:12.403Z,97533.92
2023-03-13T22:58:41.472Z,97527.77
2023-03-13T23:01:14.725Z,97524.30
2023-03-13T23:03:42.547Z,97520.83
2023-03-13T23:06:17.997Z,97516.81
2023-03-13T23:08:47.376Z,97499.95
2023-03-13T23:11:16.327Z,97499.45
2023-03-13T23:13:44.196Z,97496.77
2023-03-13T23:16:13.176Z,97497.03
2023-03-13T23:18:40.904Z,97491.71
2023-03-13T23:21:12.451Z,97491.17
2023-03-13T23:23:40.858Z,97486.66
2023-03-13T23:26:15.183Z,97493.10
2023-03-13T23:28:43.087Z,97487.48
2023-03-13T23:31:18.456Z,97482.39
2023-03-13T23:33:47.214Z,97485.86
2023-03-13T23:36:18.498Z,97496.56
2023-03-13T23:38:52.109Z,97487.45
2023-03-13T23:41:21.258Z,97496.31
2023-03-13T23:43:48.784Z,97491.51
2023-03-13T23:46:19.637Z,97485.07
2023-03-13T23:48:47.382Z,97476.78
2023-03-13T23:51:14.954Z,97473.57
2023-03-13T23:53:43.582Z,97472.27
2023-03-13T23:56:13.609Z,97469.05
2023-03-13T23:58:43.631Z,97464.24
